Data for 10/13/2015

Time Sea-Level Adjusted Pressure Absolute Pressure Temperature Relative Humidity Dew Point   
(mb) (inHg) (mb) (inHg) (C) (F) (%) (C) (F)
00:05 1022 30.18 851 25.13 12.4 54.4 28 -5.4 22.3
00:10 1022 30.18 851 25.13 13.1 55.6 27 -5.5 22.2
00:15 1022 30.18 851 25.13 13.3 56 26 -5.5 22
00:20 1022 30.18 851 25.13 13.6 56.5 26 -5.5 22.1
00:25 1022 30.18 851 25.13 13.4 56.2 28 -4.5 23.9
00:30 1022 30.18 851 25.13 12.5 54.5 29 -5 23.1
00:35 1022 30.18 851 25.13 12.7 54.8 29 -5 23.1
00:40 1022 30.18 851 25.13 12.7 54.8 29 -5 22.9
00:45 1022 30.18 851 25.13 12.8 55.1 28 -5 23.1
00:50 1022 30.18 851 25.13 12.9 55.1 29 -4.9 23.2
00:55 1022 30.18 851 25.13 12.6 54.7 30 -4.7 23.6
01:00 1022 30.18 851 25.13 12.2 53.9 31 -4.6 23.8
01:05 1022 30.18 851 25.13 12.1 53.7 30 -5.1 22.9
01:10 1022 30.18 851 25.13 12 53.7 32 -4.3 24.3
01:15 1022 30.18 851 25.13 11.3 52.4 33 -4.2 24.4
01:20 1022 30.18 851 25.13 10.9 51.5 34 -4.4 24
01:25 1022 30.18 851 25.13 10.8 51.5 33 -4.6 23.7
01:30 1022 30.18 851 25.13 10.9 51.6 33 -4.5 23.9
01:35 1022 30.18 851 25.13 10.9 51.7 32 -4.9 23.2
01:40 1022 30.18 852 25.16 11.3 52.4 31 -5 22.9
01:45 1022 30.18 852 25.16 11.7 53 30 -5.2 22.7
01:50 1022 30.18 852 25.16 11.9 53.4 30 -5.2 22.7
01:55 1022 30.18 851 25.13 12.1 53.8 30 -5.1 22.8
02:00 1022 30.18 852 25.16 12.3 54.1 30 -4.9 23.2
02:05 1022 30.18 852 25.16 12 53.7 30 -4.8 23.4
02:10 1022 30.18 851 25.13 12.1 53.8 29 -5.4 22.4
02:15 1022 30.18 851 25.13 12.6 54.7 28 -5.5 22.2
02:20 1022 30.18 851 25.13 12.7 54.9 29 -4.9 23.2
02:25 1022 30.18 851 25.13 12.2 54 29 -5.2 22.7
02:30 1022 30.18 852 25.16 12.4 54.2 29 -5.2 22.6
02:35 1022 30.18 852 25.16 12.5 54.5 29 -5.1 22.8
02:40 1022 30.18 852 25.16 12.6 54.6 29 -5 23.1
02:45 1022 30.18 852 25.16 12.4 54.3 29 -4.9 23.2
02:50 1022 30.18 852 25.16 12 53.6 32 -4 24.8
02:55 1022 30.18 852 25.16 11 51.8 33 -4.8 23.4
03:00 1022 30.18 852 25.16 11.1 51.9 32 -5 23
03:05 1022 30.18 852 25.16 11.5 52.7 31 -4.8 23.3
03:10 1022 30.18 852 25.16 11.7 53 32 -4.5 23.8
03:15 1022 30.18 852 25.16 11.7 53.1 31 -4.6 23.7
03:20 1022 30.18 852 25.16 11.8 53.2 32 -4.5 24
03:25 1022 30.18 852 25.16 11.4 52.4 32 -4.6 23.7
03:30 1022 30.18 852 25.16 11.1 51.9 33 -4.7 23.6
03:35 1022 30.18 852 25.16 11.1 52 32 -5 23
03:40 1022 30.18 852 25.16 11.8 53.2 31 -5 23
03:45 1022 30.18 852 25.16 12.2 54 30 -4.6 23.7
03:50 1022 30.18 852 25.16 12.2 53.9 31 -4.5 23.9
03:55 1022 30.18 852 25.16 11.9 53.4 31 -4.6 23.8
04:00 1022 30.18 852 25.16 11.8 53.3 31 -4.7 23.5
04:05 1022 30.18 852 25.16 12.1 53.8 30 -4.8 23.3
04:10 1022 30.18 852 25.16 12.4 54.2 30 -4.6 23.7
04:15 1022 30.18 852 25.16 12.2 53.9 31 -4.3 24.3
04:20 1022 30.18 852 25.16 11.8 53.2 32 -4.3 24.2
04:25 1022 30.18 852 25.16 11.3 52.3 35 -3.7 25.4
04:30 1022 30.18 852 25.16 10.6 51.1 35 -4 24.7
04:35 1022 30.18 852 25.16 10.6 51.1 34 -4.4 24
04:40 1022 30.18 852 25.16 10.7 51.3 35 -4.1 24.6
04:45 1022 30.18 852 25.16 10.6 51 36 -3.9 25
04:50 1022 30.18 852 25.16 10.1 50.2 38 -3.5 25.8
04:55 1022 30.18 852 25.16 9.5 49 42 -2.7 27.2
05:00 1023 30.21 852 25.16 8.3 47 43 -3.5 25.7
05:05 1023 30.21 852 25.16 8.6 47.4 42 -3.6 25.5
05:10 1023 30.21 852 25.16 8.8 47.8 41 -3.6 25.6
05:15 1023 30.21 852 25.16 8.9 48.1 43 -3 26.6
05:20 1023 30.21 852 25.16 8.3 46.9 44 -3.2 26.3
05:25 1023 30.21 852 25.16 8.2 46.8 44 -3.1 26.4
05:30 1023 30.21 852 25.16 8.4 47.1 44 -3.1 26.5
05:35 1023 30.21 852 25.16 8.2 46.7 45 -3 26.5
05:40 1023 30.21 852 25.16 8.7 47.6 42 -3.6 25.5
05:45 1023 30.21 852 25.16 9.4 48.8 38 -4.2 24.4
05:50 1023 30.21 852 25.16 9.6 49.2 40 -3.4 25.8
05:55 1023 30.21 852 25.16 9.2 48.5 40 -3.8 25.2
06:00 1023 30.21 852 25.16 9.1 48.5 40 -3.6 25.5
06:05 1022 30.18 852 25.16 9 48.1 40 -4 24.7
06:10 1023 30.21 852 25.16 9.6 49.2 39 -3.8 25.2
06:15 1022 30.18 852 25.16 9.6 49.3 40 -3.2 26.3
06:20 1023 30.21 852 25.16 8.9 48.1 42 -3.4 25.9
06:25 1023 30.21 852 25.16 8.9 48 41 -3.6 25.5
06:30 1023 30.21 852 25.16 9.1 48.3 42 -3.3 26.1
06:35 1023 30.21 852 25.16 9.3 48.7 41 -3.3 26
06:40 1023 30.21 852 25.16 9.9 49.8 40 -3.2 26.2
06:45 1023 30.21 852 25.16 10.2 50.3 39 -3.1 26.4
06:50 1023 30.21 852 25.16 10.5 51 37 -3.3 26
06:55 1023 30.21 852 25.16 11 51.8 37 -3.1 26.4
07:00 1023 30.21 852 25.16 11.3 52.4 37 -3 26.7
07:05 1023 30.21 852 25.16 11.4 52.5 38 -2.3 27.8
07:10 1023 30.21 852 25.16 11.4 52.4 38 -2.3 27.8
07:15 1023 30.21 852 25.16 11.3 52.4 38 -2.5 27.5
07:20 1023 30.21 852 25.16 11.8 53.2 36 -2.7 27.2
07:25 1023 30.21 852 25.16 12.2 53.9 35 -2.7 27.1
07:30 1023 30.21 852 25.16 12.5 54.4 34 -2.8 27
07:35 1023 30.21 852 25.16 12.8 55 34 -2.7 27.2
07:40 1023 30.21 852 25.16 13.1 55.6 33 -2.6 27.4
07:45 1023 30.21 852 25.16 13.4 56.1 33 -2.7 27.2
07:50 1023 30.21 852 25.16 13.6 56.4 33 -2.5 27.5
07:55 1023 30.21 852 25.16 13.9 57.1 33 -2 28.4
08:00 1023 30.21 852 25.16 14 57.2 35 -1.1 30
08:05 1023 30.21 852 25.16 13.6 56.5 38 -0.5 31.1
08:10 1023 30.21 852 25.16 13.2 55.7 36 -1.5 29.4
08:15 1023 30.21 852 25.16 13.5 56.3 36 -1.2 29.8
08:20 1023 30.21 852 25.16 13.2 55.8 37 -1.2 29.9
08:25 1023 30.21 852 25.16 13.3 55.9 36 -1.4 29.5
08:30 1023 30.21 852 25.16 13.7 56.6 36 -1.2 29.8
08:35 1023 30.21 852 25.16 14 57.2 34 -1.5 29.3
08:40 1023 30.21 852 25.16 14.7 58.4 33 -1.3 29.7
08:45 1023 30.21 852 25.16 15.4 59.7 32 -1.3 29.6
08:50 1023 30.21 852 25.16 16.2 61.1 30 -1.2 29.9
08:55 1023 30.21 852 25.16 16.5 61.7 30 -0.9 30.3
09:00 1023 30.21 852 25.16 16.9 62.3 30 -0.7 30.8
09:05 1023 30.21 852 25.16 17.2 63 29 -0.6 30.9
09:10 1023 30.21 852 25.16 17.6 63.7 28 -0.7 30.7
09:15 1023 30.21 852 25.16 18.1 64.6 28 -0.5 31.1
09:20 1023 30.21 852 25.16 18.6 65.4 28 -0.1 31.8
09:25 1023 30.21 852 25.16 18.8 65.8 27 -0.7 30.7
09:30 1023 30.21 852 25.16 18.5 65.3 28 -0.5 31.2
09:35 1023 30.21 852 25.16 18 64.5 28 -0.7 30.8
09:40 1023 30.21 852 25.16 18 64.3 28 -0.6 31
09:45 1023 30.21 852 25.16 18.4 65 25 -1.9 28.6
09:50 1023 30.21 852 25.16 18.3 65 26 -1.2 29.8
09:55 1023 30.21 852 25.16 18.2 64.7 26 -1.3 29.6
10:00 1023 30.21 852 25.16 18.5 65.2 26 -1.4 29.4
10:05 1023 30.21 852 25.16 18.6 65.4 26 -1.1 30
10:10 1023 30.21 852 25.16 18.6 65.4 26 -1 30.1
10:15 1023 30.21 852 25.16 18.3 64.9 27 -0.9 30.4
10:20 1023 30.21 852 25.16 18.1 64.6 27 -1 30.2
10:25 1023 30.21 852 25.16 17.9 64.2 28 -0.8 30.5
10:30 1023 30.21 852 25.16 17.8 64.1 27 -1.5 29.3
10:35 1023 30.21 852 25.16 18.6 65.6 25 -1.6 29.2
10:40 1022 30.18 852 25.16 18.9 66 25 -1.2 29.8
10:45 1022 30.18 852 25.16 19.6 67.3 24 -1.4 29.4
10:50 1022 30.18 852 25.16 20 68.1 24 -1.1 30.1
10:55 1022 30.18 851 25.13 20.2 68.4 24 -0.9 30.3
11:00 1022 30.18 851 25.13 20.4 68.8 24 -0.8 30.5
11:05 1022 30.18 851 25.13 21.4 70.4 23 -0.5 31
11:10 1022 30.18 851 25.13 20.9 69.6 24 -0.3 31.5
11:15 1022 30.18 851 25.13 21.6 70.9 23 -0.4 31.3
11:20 1022 30.18 851 25.13 22 71.6 22 -0.4 31.3
11:25 1022 30.18 851 25.13 21.9 71.4 21 -1 30.3
11:30 1022 30.18 851 25.13 21.5 70.6 22 -1 30.2
11:35 1022 30.18 851 25.13 21 69.7 23 -1 30.1
11:40 1022 30.18 851 25.13 21.4 70.6 21 -1.4 29.5
11:45 1022 30.18 851 25.13 21.6 71 22 -0.9 30.4
11:50 1022 30.18 851 25.13 21.9 71.4 21 -1 30.2
11:55 1022 30.18 851 25.13 22.2 71.9 21 -0.8 30.5
12:00 1022 30.18 851 25.13 22.5 72.5 20 -1.5 29.3
12:05 1022 30.18 851 25.13 22.8 73 21 -0.6 31
12:10 1022 30.18 851 25.13 22.5 72.5 21 -1 30.2
12:15 1021 30.15 851 25.13 22.9 73.1 20 -1.2 29.9
12:20 1021 30.15 851 25.13 23.1 73.5 20 -1.1 29.9
12:25 1021 30.15 851 25.13 22.6 72.6 21 -1 30.3
12:30 1021 30.15 851 25.13 22.8 73 20 -1.2 29.8
12:35 1021 30.15 851 25.13 22.9 73.3 20 -1.1 30
12:40 1021 30.15 850 25.1 23.2 73.7 20 -0.9 30.3
12:45 1021 30.15 851 25.13 22.5 72.4 20 -1.5 29.2
12:50 1021 30.15 850 25.1 22.3 72.2 21 -1 30.2
12:55 1021 30.15 850 25.1 22 71.6 21 -1.2 29.9
13:00 1021 30.15 850 25.1 21.8 71.2 21 -1.6 29.1
13:05 1021 30.15 850 25.1 22.3 72.2 20 -1.7 28.9
13:10 1021 30.15 850 25.1 22.9 73.1 19 -1.7 28.9
13:15 1021 30.15 850 25.1 22.9 73.3 20 -1.3 29.7
13:20 1021 30.15 850 25.1 23 73.4 20 -1.2 29.8
13:25 1021 30.15 850 25.1 22.6 72.6 20 -1 30.1
13:30 1021 30.15 850 25.1 22.6 72.7 21 -0.6 30.9
13:35 1021 30.15 850 25.1 23 73.4 20 -0.8 30.6
13:40 1021 30.15 850 25.1 23.6 74.5 20 -0.2 31.7
13:45 1021 30.15 850 25.1 23.5 74.4 20 -0.7 30.7
13:50 1021 30.15 850 25.1 23.2 73.8 21 -0.1 31.8
13:55 1021 30.15 850 25.1 23.2 73.7 21 -0.2 31.7
14:00 1021 30.15 850 25.1 23.3 73.9 20 -0.4 31.2
14:05 1021 30.15 850 25.1 23.1 73.7 21 0 32
14:10 1021 30.15 850 25.1 23.6 74.4 19 -1.1 30.1
14:15 1021 30.15 850 25.1 24.1 75.4 20 -0.3 31.4
14:20 1021 30.15 850 25.1 24.2 75.5 18 -1.6 29
14:25 1021 30.15 850 25.1 23.4 74.2 19 -1.5 29.3
14:30 1021 30.15 850 25.1 22.8 73 19 -2.1 28.3
14:35 1020 30.12 850 25.1 23.1 73.5 19 -1.6 29
14:40 1020 30.12 850 25.1 23.7 74.6 17 -2.3 27.8
14:45 1020 30.12 849 25.07 23.6 74.5 17 -2.6 27.3
14:50 1020 30.12 849 25.07 23.6 74.5 18 -2 28.4
14:55 1020 30.12 849 25.07 23.5 74.4 18 -2.3 27.9
15:00 1020 30.12 849 25.07 23.7 74.6 18 -2 28.5
15:05 1020 30.12 849 25.07 23.8 74.8 17 -2.9 26.9
15:10 1020 30.12 849 25.07 23.2 73.7 18 -2.4 27.6
15:15 1020 30.12 849 25.07 23.2 73.8 18 -2.5 27.4
15:20 1020 30.12 849 25.07 23.4 74.2 17 -2.4 27.6
15:25 1020 30.12 849 25.07 23.6 74.4 17 -2.7 27.2
15:30 1020 30.12 849 25.07 23.6 74.5 17 -2.8 27
15:35 1020 30.12 849 25.07 23.8 74.9 17 -2.9 26.9
15:40 1020 30.12 849 25.07 23.8 74.8 16 -3 26.6
15:45 1020 30.12 849 25.07 23.8 74.8 17 -2.7 27.2
15:50 1020 30.12 849 25.07 23.9 75 17 -2.2 28.1
15:55 1020 30.12 849 25.07 23.5 74.3 17 -2.4 27.7
16:00 1020 30.12 849 25.07 23.3 73.9 18 -2.5 27.5
16:05 1020 30.12 849 25.07 23.4 74.2 18 -1.9 28.5
16:10 1020 30.12 849 25.07 23.5 74.4 18 -2.2 28
16:15 1020 30.12 849 25.07 23.3 73.9 18 -2.3 27.9
16:20 1020 30.12 849 25.07 23.4 74.2 17 -2.9 26.7
16:25 1020 30.12 849 25.07 23.4 74 17 -3 26.6
16:30 1020 30.12 849 25.07 23.3 74 17 -2.8 27
16:35 1020 30.12 849 25.07 23.3 73.9 17 -2.9 26.8
16:40 1020 30.12 849 25.07 23.2 73.7 18 -2.5 27.4
16:45 1020 30.12 849 25.07 23 73.4 17 -2.9 26.7
16:50 1020 30.12 849 25.07 22.9 73.1 17 -3.2 26.3
16:55 1020 30.12 849 25.07 22.7 72.9 17 -3.3 26.1
17:00 1020 30.12 849 25.07 22.5 72.5 18 -2.8 26.9
17:05 1020 30.12 849 25.07 22.3 72.1 18 -3.2 26.2
17:10 1020 30.12 849 25.07 22.2 72 18 -2.7 27.1
17:15 1020 30.12 849 25.07 22 71.6 19 -2.6 27.3
17:20 1020 30.12 849 25.07 21.9 71.3 19 -2.4 27.6
17:25 1020 30.12 849 25.07 21.2 70.2 22 -1.4 29.5
17:30 1020 30.12 849 25.07 20.6 69.1 21 -2.2 28.1
17:35 1020 30.12 849 25.07 20.5 68.9 22 -2.1 28.2
17:40 1020 30.12 849 25.07 20.3 68.6 21 -2.5 27.4
17:45 1020 30.12 849 25.07 20.2 68.3 21 -2.6 27.4
17:50 1020 30.12 849 25.07 20 67.9 22 -2.5 27.5
17:55 1020 30.12 850 25.1 19.8 67.6 22 -2.2 28
18:00 1020 30.12 850 25.1 19.4 66.9 23 -2.3 27.9
18:05 1020 30.12 850 25.1 19.2 66.6 23 -2.3 27.9
18:10 1020 30.12 850 25.1 19.2 66.5 23 -2.5 27.4
18:15 1020 30.12 850 25.1 19.1 66.3 23 -2.3 27.8
18:20 1020 30.12 850 25.1 18.6 65.6 24 -2 28.3
18:25 1021 30.15 850 25.1 18 64.3 25 -2.4 27.7
18:30 1021 30.15 850 25.1 17.9 64.2 25 -2.4 27.7
18:35 1021 30.15 850 25.1 17.8 64.1 25 -2.3 27.9
18:40 1021 30.15 850 25.1 17.6 63.8 25 -2.5 27.6
18:45 1021 30.15 850 25.1 17.5 63.4 25 -2.4 27.7
18:50 1021 30.15 850 25.1 17.2 63 26 -2.5 27.4
18:55 1021 30.15 850 25.1 17.2 63 25 -2.7 27.2
19:00 1021 30.15 850 25.1 17.1 62.9 26 -2.3 27.9
19:05 1021 30.15 850 25.1 16.7 62.1 27 -2.5 27.5
19:10 1021 30.15 850 25.1 16.5 61.7 27 -2.3 27.9
19:15 1021 30.15 850 25.1 16.2 61.2 28 -2.3 27.8
19:20 1021 30.15 850 25.1 16.2 61.2 27 -2.6 27.4
19:25 1021 30.15 850 25.1 16.3 61.3 27 -2.7 27.2
19:30 1021 30.15 850 25.1 16.3 61.3 27 -2.8 27
19:35 1021 30.15 850 25.1 16.2 61.2 27 -2.7 27.2
19:40 1021 30.15 850 25.1 16.2 61.1 27 -2.8 27
19:45 1021 30.15 851 25.13 16.2 61.1 27 -2.7 27.2
19:50 1021 30.15 851 25.13 16.2 61.1 27 -2.8 27
19:55 1022 30.18 851 25.13 16.1 61 27 -2.7 27.2
20:00 1022 30.18 851 25.13 16 60.7 28 -2.6 27.3
20:05 1022 30.18 851 25.13 15.6 60.2 29 -2.4 27.6
20:10 1022 30.18 851 25.13 15.2 59.4 29 -2.4 27.7
20:15 1022 30.18 851 25.13 15.1 59.1 29 -2.5 27.5
20:20 1022 30.18 851 25.13 15.1 59.2 29 -2.6 27.4
20:25 1022 30.18 851 25.13 15.3 59.5 29 -2.4 27.7
20:30 1022 30.18 851 25.13 15.2 59.4 30 -2.1 28.2
20:35 1022 30.18 851 25.13 14.9 58.9 31 -2.1 28.2
20:40 1022 30.18 851 25.13 14.7 58.4 31 -2.1 28.1
20:45 1022 30.18 851 25.13 14.6 58.3 31 -2.1 28.3
20:50 1022 30.18 851 25.13 14.6 58.2 32 -2 28.4
20:55 1022 30.18 851 25.13 14.5 58.1 32 -1.8 28.7
21:00 1022 30.18 851 25.13 14.4 57.9 32 -1.9 28.7
21:05 1022 30.18 851 25.13 14.2 57.6 33 -1.7 29
21:10 1022 30.18 851 25.13 14 57.2 34 -1.4 29.5
21:15 1022 30.18 851 25.13 13.7 56.6 35 -1.5 29.2
21:20 1022 30.18 851 25.13 13.5 56.4 36 -1.3 29.6
21:25 1022 30.18 851 25.13 13.2 55.7 36 -1.3 29.6
21:30 1022 30.18 851 25.13 12.8 55.1 38 -1 30.2
21:35 1022 30.18 851 25.13 12.7 54.9 38 -1.1 30
21:40 1022 30.18 851 25.13 12.8 55 38 -1.2 29.8
21:45 1022 30.18 852 25.16 12.8 55 39 -0.9 30.5
21:50 1022 30.18 851 25.13 12.6 54.6 39 -1 30.2
21:55 1022 30.18 851 25.13 12.4 54.3 41 -0.6 31
22:00 1022 30.18 852 25.16 12.3 54.2 40 -0.8 30.5
22:05 1022 30.18 851 25.13 12.1 53.8 41 -0.7 30.7
22:10 1022 30.18 852 25.16 11.9 53.4 41 -0.9 30.4
22:15 1022 30.18 852 25.16 11.9 53.5 40 -1.1 30
22:20 1022 30.18 852 25.16 11.9 53.4 41 -1 30.3
22:25 1022 30.18 852 25.16 11.7 53.1 42 -0.7 30.7
22:30 1022 30.18 852 25.16 11.8 53.2 41 -1 30.1
22:35 1022 30.18 852 25.16 11.7 53.1 42 -0.9 30.4
22:40 1022 30.18 852 25.16 11.5 52.7 42 -0.9 30.3
22:45 1022 30.18 852 25.16 11.4 52.6 42 -0.9 30.3
22:50 1022 30.18 852 25.16 11.4 52.5 43 -0.8 30.5
22:55 1023 30.21 852 25.16 11.3 52.4 43 -0.8 30.6
23:00 1023 30.21 852 25.16 11.3 52.3 42 -1 30.1
23:05 1023 30.21 852 25.16 11.3 52.4 43 -0.6 30.9
23:10 1023 30.21 852 25.16 11.2 52.1 44 -0.7 30.8
23:15 1023 30.21 852 25.16 10.9 51.5 45 -0.7 30.7
23:20 1023 30.21 852 25.16 10.6 51.1 46 -0.6 30.9
23:25 1023 30.21 852 25.16 10.4 50.8 46 -0.7 30.7
23:30 1023 30.21 852 25.16 10.2 50.4 46 -0.7 30.7
23:35 1023 30.21 852 25.16 10.2 50.3 47 -0.7 30.7
23:40 1023 30.21 852 25.16 10.1 50.1 47 -0.6 30.8
23:45 1023 30.21 852 25.16 9.9 49.8 48 -0.6 30.9
23:50 1023 30.21 852 25.16 9.6 49.4 49 -0.4 31.2
23:55 1023 30.21 852 25.16 9.5 49.1 49 -0.8 30.6
24:00 1023 30.21 852 25.16 9.8 49.6 47 -0.8 30.5